sensor_id;sensor_type;location;lat;lon;timestamp;P1;durP1;ratioP1;P2;durP2;ratioP2
72974;SDS011;61166;54.228;37.632;2022-11-23T00:00:30;68.88;;;5.38;;
72974;SDS011;61166;54.228;37.632;2022-11-23T00:02:56;33.63;;;3.58;;
72974;SDS011;61166;54.228;37.632;2022-11-23T00:05:25;35.03;;;3.83;;
72974;SDS011;61166;54.228;37.632;2022-11-23T00:07:52;94.07;;;6.88;;
72974;SDS011;61166;54.228;37.632;2022-11-23T00:10:20;34.65;;;3.90;;
72974;SDS011;61166;54.228;37.632;2022-11-23T00:12:47;17.65;;;3.72;;
72974;SDS011;61166;54.228;37.632;2022-11-23T00:15:14;14.82;;;3.80;;
72974;SDS011;61166;54.228;37.632;2022-11-23T00:17:41;20.87;;;3.20;;
72974;SDS011;61166;54.228;37.632;2022-11-23T00:20:08;77.20;;;5.60;;
72974;SDS011;61166;54.228;37.632;2022-11-23T00:22:34;25.58;;;2.80;;
72974;SDS011;61166;54.228;37.632;2022-11-23T00:25:01;16.83;;;3.08;;
72974;SDS011;61166;54.228;37.632;2022-11-23T00:27:28;13.27;;;2.45;;
72974;SDS011;61166;54.228;37.632;2022-11-23T00:29:54;15.57;;;2.70;;
72974;SDS011;61166;54.228;37.632;2022-11-23T00:32:24;54.15;;;4.55;;
72974;SDS011;61166;54.228;37.632;2022-11-23T00:34:50;25.83;;;2.85;;
72974;SDS011;61166;54.228;37.632;2022-11-23T00:37:17;36.63;;;3.83;;
72974;SDS011;61166;54.228;37.632;2022-11-23T00:39:43;69.65;;;5.45;;
72974;SDS011;61166;54.228;37.632;2022-11-23T00:42:10;49.90;;;4.33;;
72974;SDS011;61166;54.228;37.632;2022-11-23T00:44:37;52.90;;;3.35;;
72974;SDS011;61166;54.228;37.632;2022-11-23T00:47:03;69.32;;;4.75;;
72974;SDS011;61166;54.228;37.632;2022-11-23T00:49:30;58.13;;;3.90;;
72974;SDS011;61166;54.228;37.632;2022-11-23T00:51:57;29.80;;;2.70;;
72974;SDS011;61166;54.228;37.632;2022-11-23T00:54:23;25.63;;;2.67;;
72974;SDS011;61166;54.228;37.632;2022-11-23T00:56:50;98.85;;;6.57;;
72974;SDS011;61166;54.228;37.632;2022-11-23T00:59:16;56.22;;;4.25;;
72974;SDS011;61166;54.228;37.632;2022-11-23T01:01:43;50.80;;;4.65;;
72974;SDS011;61166;54.228;37.632;2022-11-23T01:04:09;19.65;;;2.47;;
72974;SDS011;61166;54.228;37.632;2022-11-23T01:06:37;22.73;;;2.50;;
72974;SDS011;61166;54.228;37.632;2022-11-23T01:09:17;26.63;;;3.25;;
72974;SDS011;61166;54.228;37.632;2022-11-23T01:11:44;25.63;;;3.10;;
72974;SDS011;61166;54.228;37.632;2022-11-23T01:14:11;59.13;;;4.80;;
72974;SDS011;61166;54.228;37.632;2022-11-23T01:16:38;48.40;;;4.22;;
72974;SDS011;61166;54.228;37.632;2022-11-23T01:19:07;36.33;;;2.90;;
72974;SDS011;61166;54.228;37.632;2022-11-23T01:21:37;12.88;;;2.33;;
72974;SDS011;61166;54.228;37.632;2022-11-23T01:24:05;22.60;;;2.58;;
72974;SDS011;61166;54.228;37.632;2022-11-23T01:26:38;20.10;;;2.40;;
72974;SDS011;61166;54.228;37.632;2022-11-23T01:29:06;11.77;;;2.72;;
72974;SDS011;61166;54.228;37.632;2022-11-23T01:31:33;17.47;;;2.90;;
72974;SDS011;61166;54.228;37.632;2022-11-23T01:34:00;26.77;;;2.83;;
72974;SDS011;61166;54.228;37.632;2022-11-23T01:36:29;10.10;;;2.42;;
72974;SDS011;61166;54.228;37.632;2022-11-23T01:38:57;20.52;;;2.40;;
72974;SDS011;61166;54.228;37.632;2022-11-23T01:41:26;36.60;;;3.78;;
72974;SDS011;61166;54.228;37.632;2022-11-23T01:43:55;15.53;;;2.60;;
72974;SDS011;61166;54.228;37.632;2022-11-23T01:46:22;30.02;;;3.55;;
72974;SDS011;61166;54.228;37.632;2022-11-23T01:48:55;43.92;;;3.75;;
72974;SDS011;61166;54.228;37.632;2022-11-23T01:51:28;51.88;;;4.78;;
72974;SDS011;61166;54.228;37.632;2022-11-23T01:53:59;21.23;;;2.30;;
72974;SDS011;61166;54.228;37.632;2022-11-23T01:56:36;11.33;;;2.40;;
72974;SDS011;61166;54.228;37.632;2022-11-23T01:59:06;15.60;;;3.03;;
72974;SDS011;61166;54.228;37.632;2022-11-23T02:01:38;19.95;;;2.67;;
72974;SDS011;61166;54.228;37.632;2022-11-23T02:04:05;21.67;;;2.22;;
72974;SDS011;61166;54.228;37.632;2022-11-23T02:06:33;18.83;;;2.15;;
72974;SDS011;61166;54.228;37.632;2022-11-23T02:09:00;17.57;;;2.40;;
72974;SDS011;61166;54.228;37.632;2022-11-23T02:11:27;7.55;;;2.08;;
72974;SDS011;61166;54.228;37.632;2022-11-23T02:13:54;7.03;;;1.73;;
72974;SDS011;61166;54.228;37.632;2022-11-23T02:16:21;10.23;;;2.10;;
72974;SDS011;61166;54.228;37.632;2022-11-23T02:18:48;6.70;;;1.55;;
72974;SDS011;61166;54.228;37.632;2022-11-23T02:21:17;9.50;;;1.70;;
72974;SDS011;61166;54.228;37.632;2022-11-23T02:23:56;41.00;;;3.38;;
72974;SDS011;61166;54.228;37.632;2022-11-23T02:26:29;9.45;;;1.50;;
72974;SDS011;61166;54.228;37.632;2022-11-23T02:31:33;8.65;;;2.00;;
72974;SDS011;61166;54.228;37.632;2022-11-23T02:34:03;5.67;;;1.53;;
72974;SDS011;61166;54.228;37.632;2022-11-23T02:39:10;4.97;;;1.42;;
72974;SDS011;61166;54.228;37.632;2022-11-23T02:41:50;9.55;;;1.60;;
72974;SDS011;61166;54.228;37.632;2022-11-23T02:46:59;10.27;;;2.60;;
72974;SDS011;61166;54.228;37.632;2022-11-23T02:49:26;7.20;;;1.90;;
72974;SDS011;61166;54.228;37.632;2022-11-23T02:51:53;5.50;;;1.77;;
72974;SDS011;61166;54.228;37.632;2022-11-23T02:54:20;7.10;;;1.73;;
72974;SDS011;61166;54.228;37.632;2022-11-23T02:56:46;10.43;;;1.60;;
72974;SDS011;61166;54.228;37.632;2022-11-23T02:59:13;5.73;;;1.40;;
72974;SDS011;61166;54.228;37.632;2022-11-23T03:01:39;6.28;;;1.48;;
72974;SDS011;61166;54.228;37.632;2022-11-23T03:04:06;8.70;;;1.50;;
72974;SDS011;61166;54.228;37.632;2022-11-23T03:06:33;6.72;;;1.30;;
72974;SDS011;61166;54.228;37.632;2022-11-23T03:09:00;10.25;;;1.58;;
72974;SDS011;61166;54.228;37.632;2022-11-23T03:11:27;5.90;;;1.20;;
72974;SDS011;61166;54.228;37.632;2022-11-23T03:13:53;5.63;;;1.52;;
72974;SDS011;61166;54.228;37.632;2022-11-23T03:16:20;4.80;;;1.35;;
72974;SDS011;61166;54.228;37.632;2022-11-23T03:18:47;9.93;;;1.85;;
72974;SDS011;61166;54.228;37.632;2022-11-23T03:21:13;6.85;;;1.20;;
72974;SDS011;61166;54.228;37.632;2022-11-23T03:23:40;5.83;;;1.17;;
72974;SDS011;61166;54.228;37.632;2022-11-23T03:26:07;6.13;;;1.48;;
72974;SDS011;61166;54.228;37.632;2022-11-23T03:28:38;6.75;;;1.60;;
72974;SDS011;61166;54.228;37.632;2022-11-23T03:31:05;7.63;;;1.42;;
72974;SDS011;61166;54.228;37.632;2022-11-23T03:33:45;10.85;;;1.60;;
72974;SDS011;61166;54.228;37.632;2022-11-23T03:36:12;7.07;;;1.90;;
72974;SDS011;61166;54.228;37.632;2022-11-23T03:38:38;7.35;;;1.38;;
72974;SDS011;61166;54.228;37.632;2022-11-23T03:41:06;11.20;;;1.58;;
72974;SDS011;61166;54.228;37.632;2022-11-23T03:43:33;11.48;;;1.42;;
72974;SDS011;61166;54.228;37.632;2022-11-23T03:45:59;5.53;;;0.95;;
72974;SDS011;61166;54.228;37.632;2022-11-23T03:48:26;6.83;;;1.57;;
72974;SDS011;61166;54.228;37.632;2022-11-23T03:50:52;8.07;;;1.38;;
72974;SDS011;61166;54.228;37.632;2022-11-23T03:53:19;10.52;;;1.30;;
72974;SDS011;61166;54.228;37.632;2022-11-23T03:55:45;7.97;;;1.77;;
72974;SDS011;61166;54.228;37.632;2022-11-23T03:58:12;9.32;;;1.30;;
72974;SDS011;61166;54.228;37.632;2022-11-23T04:00:39;11.40;;;1.63;;
72974;SDS011;61166;54.228;37.632;2022-11-23T04:03:08;9.30;;;1.33;;
72974;SDS011;61166;54.228;37.632;2022-11-23T04:05:34;11.85;;;1.95;;
72974;SDS011;61166;54.228;37.632;2022-11-23T04:08:01;10.52;;;1.80;;
72974;SDS011;61166;54.228;37.632;2022-11-23T04:10:28;12.35;;;2.05;;
72974;SDS011;61166;54.228;37.632;2022-11-23T04:12:55;6.37;;;1.83;;
72974;SDS011;61166;54.228;37.632;2022-11-23T04:15:22;10.45;;;1.80;;
72974;SDS011;61166;54.228;37.632;2022-11-23T04:17:48;11.05;;;2.08;;
72974;SDS011;61166;54.228;37.632;2022-11-23T04:20:15;26.05;;;2.28;;
72974;SDS011;61166;54.228;37.632;2022-11-23T04:22:41;7.78;;;1.15;;
72974;SDS011;61166;54.228;37.632;2022-11-23T04:25:09;10.07;;;1.67;;
72974;SDS011;61166;54.228;37.632;2022-11-23T04:27:36;14.88;;;1.67;;
72974;SDS011;61166;54.228;37.632;2022-11-23T04:30:04;9.55;;;1.40;;
72974;SDS011;61166;54.228;37.632;2022-11-23T04:32:32;5.38;;;1.70;;
72974;SDS011;61166;54.228;37.632;2022-11-23T04:34:58;5.40;;;1.10;;
72974;SDS011;61166;54.228;37.632;2022-11-23T04:37:25;5.50;;;1.43;;
72974;SDS011;61166;54.228;37.632;2022-11-23T04:39:52;9.80;;;2.00;;
72974;SDS011;61166;54.228;37.632;2022-11-23T04:42:18;18.40;;;2.17;;
72974;SDS011;61166;54.228;37.632;2022-11-23T04:44:46;15.75;;;1.50;;
72974;SDS011;61166;54.228;37.632;2022-11-23T04:47:13;8.77;;;1.25;;
72974;SDS011;61166;54.228;37.632;2022-11-23T04:49:39;6.43;;;1.27;;
72974;SDS011;61166;54.228;37.632;2022-11-23T04:52:06;7.43;;;1.23;;
72974;SDS011;61166;54.228;37.632;2022-11-23T04:54:32;4.07;;;1.45;;
72974;SDS011;61166;54.228;37.632;2022-11-23T04:56:59;12.05;;;1.77;;
72974;SDS011;61166;54.228;37.632;2022-11-23T04:59:26;6.50;;;1.20;;
72974;SDS011;61166;54.228;37.632;2022-11-23T05:01:52;8.57;;;1.37;;
72974;SDS011;61166;54.228;37.632;2022-11-23T05:04:19;7.20;;;1.15;;
72974;SDS011;61166;54.228;37.632;2022-11-23T05:06:45;7.75;;;1.40;;
72974;SDS011;61166;54.228;37.632;2022-11-23T05:09:12;6.30;;;1.20;;
72974;SDS011;61166;54.228;37.632;2022-11-23T05:11:38;9.40;;;1.50;;
72974;SDS011;61166;54.228;37.632;2022-11-23T05:14:05;6.30;;;1.57;;
72974;SDS011;61166;54.228;37.632;2022-11-23T05:16:32;5.25;;;1.30;;
72974;SDS011;61166;54.228;37.632;2022-11-23T05:18:58;6.50;;;1.73;;
72974;SDS011;61166;54.228;37.632;2022-11-23T05:21:25;4.55;;;1.25;;
72974;SDS011;61166;54.228;37.632;2022-11-23T05:23:53;7.10;;;1.48;;
72974;SDS011;61166;54.228;37.632;2022-11-23T05:26:22;4.43;;;1.43;;
72974;SDS011;61166;54.228;37.632;2022-11-23T05:28:48;6.28;;;1.38;;
72974;SDS011;61166;54.228;37.632;2022-11-23T05:31:15;5.55;;;1.50;;
72974;SDS011;61166;54.228;37.632;2022-11-23T05:33:42;9.05;;;1.60;;
72974;SDS011;61166;54.228;37.632;2022-11-23T05:36:08;5.03;;;1.20;;
72974;SDS011;61166;54.228;37.632;2022-11-23T05:38:35;6.23;;;1.47;;
72974;SDS011;61166;54.228;37.632;2022-11-23T05:41:01;5.25;;;1.73;;
72974;SDS011;61166;54.228;37.632;2022-11-23T05:43:28;3.95;;;1.00;;
72974;SDS011;61166;54.228;37.632;2022-11-23T05:45:57;5.05;;;1.23;;
72974;SDS011;61166;54.228;37.632;2022-11-23T05:48:24;6.28;;;1.33;;
72974;SDS011;61166;54.228;37.632;2022-11-23T05:50:51;4.00;;;1.40;;
72974;SDS011;61166;54.228;37.632;2022-11-23T05:53:17;3.33;;;1.05;;
72974;SDS011;61166;54.228;37.632;2022-11-23T05:55:44;6.15;;;1.58;;
72974;SDS011;61166;54.228;37.632;2022-11-23T05:58:11;6.82;;;1.42;;
72974;SDS011;61166;54.228;37.632;2022-11-23T06:00:37;8.32;;;1.83;;
72974;SDS011;61166;54.228;37.632;2022-11-23T06:03:04;3.83;;;0.90;;
72974;SDS011;61166;54.228;37.632;2022-11-23T06:05:31;4.30;;;1.00;;
72974;SDS011;61166;54.228;37.632;2022-11-23T06:07:57;5.07;;;1.20;;
72974;SDS011;61166;54.228;37.632;2022-11-23T06:10:24;4.28;;;1.00;;
72974;SDS011;61166;54.228;37.632;2022-11-23T06:12:50;5.10;;;1.50;;
72974;SDS011;61166;54.228;37.632;2022-11-23T06:15:17;5.27;;;0.87;;
72974;SDS011;61166;54.228;37.632;2022-11-23T06:17:44;4.57;;;1.50;;
72974;SDS011;61166;54.228;37.632;2022-11-23T06:20:14;4.88;;;1.48;;
72974;SDS011;61166;54.228;37.632;2022-11-23T06:22:50;6.90;;;1.33;;
72974;SDS011;61166;54.228;37.632;2022-11-23T06:25:18;5.75;;;1.38;;
72974;SDS011;61166;54.228;37.632;2022-11-23T06:27:54;5.53;;;1.60;;
72974;SDS011;61166;54.228;37.632;2022-11-23T06:30:23;4.75;;;1.58;;
72974;SDS011;61166;54.228;37.632;2022-11-23T06:32:51;4.97;;;1.40;;
72974;SDS011;61166;54.228;37.632;2022-11-23T06:35:18;6.20;;;1.70;;
72974;SDS011;61166;54.228;37.632;2022-11-23T06:37:46;5.47;;;1.83;;
72974;SDS011;61166;54.228;37.632;2022-11-23T06:40:14;8.32;;;1.63;;
72974;SDS011;61166;54.228;37.632;2022-11-23T06:42:41;4.60;;;1.15;;
72974;SDS011;61166;54.228;37.632;2022-11-23T06:45:08;5.78;;;1.35;;
72974;SDS011;61166;54.228;37.632;2022-11-23T06:47:35;4.80;;;1.33;;
72974;SDS011;61166;54.228;37.632;2022-11-23T06:50:01;5.72;;;1.35;;
72974;SDS011;61166;54.228;37.632;2022-11-23T06:52:28;4.53;;;1.40;;
72974;SDS011;61166;54.228;37.632;2022-11-23T06:54:55;5.72;;;2.22;;
72974;SDS011;61166;54.228;37.632;2022-11-23T06:57:21;8.23;;;2.53;;
72974;SDS011;61166;54.228;37.632;2022-11-23T06:59:48;6.45;;;2.13;;
72974;SDS011;61166;54.228;37.632;2022-11-23T07:02:15;8.35;;;2.33;;
72974;SDS011;61166;54.228;37.632;2022-11-23T07:04:41;5.67;;;2.43;;
72974;SDS011;61166;54.228;37.632;2022-11-23T07:07:08;6.00;;;2.70;;
72974;SDS011;61166;54.228;37.632;2022-11-23T07:09:35;6.10;;;2.53;;
72974;SDS011;61166;54.228;37.632;2022-11-23T07:12:01;7.75;;;1.98;;
72974;SDS011;61166;54.228;37.632;2022-11-23T07:14:28;5.82;;;1.70;;
72974;SDS011;61166;54.228;37.632;2022-11-23T07:16:55;4.70;;;2.10;;
72974;SDS011;61166;54.228;37.632;2022-11-23T07:19:21;6.35;;;2.00;;
72974;SDS011;61166;54.228;37.632;2022-11-23T07:21:48;8.20;;;2.45;;
72974;SDS011;61166;54.228;37.632;2022-11-23T07:24:14;6.13;;;2.25;;
72974;SDS011;61166;54.228;37.632;2022-11-23T07:26:41;5.53;;;2.00;;
72974;SDS011;61166;54.228;37.632;2022-11-23T07:29:08;5.13;;;2.17;;
72974;SDS011;61166;54.228;37.632;2022-11-23T07:31:35;3.85;;;2.08;;
72974;SDS011;61166;54.228;37.632;2022-11-23T07:34:01;10.23;;;3.03;;
72974;SDS011;61166;54.228;37.632;2022-11-23T07:36:28;4.70;;;2.15;;
72974;SDS011;61166;54.228;37.632;2022-11-23T07:38:55;6.45;;;2.78;;
72974;SDS011;61166;54.228;37.632;2022-11-23T07:41:21;6.38;;;2.60;;
72974;SDS011;61166;54.228;37.632;2022-11-23T07:43:48;4.88;;;2.38;;
72974;SDS011;61166;54.228;37.632;2022-11-23T07:46:14;6.15;;;1.80;;
72974;SDS011;61166;54.228;37.632;2022-11-23T07:48:41;5.72;;;2.30;;
72974;SDS011;61166;54.228;37.632;2022-11-23T07:51:07;6.47;;;2.75;;
72974;SDS011;61166;54.228;37.632;2022-11-23T07:53:34;4.23;;;2.00;;
72974;SDS011;61166;54.228;37.632;2022-11-23T07:56:00;6.90;;;2.30;;
72974;SDS011;61166;54.228;37.632;2022-11-23T07:58:28;4.82;;;1.52;;
72974;SDS011;61166;54.228;37.632;2022-11-23T08:00:55;4.80;;;2.67;;
72974;SDS011;61166;54.228;37.632;2022-11-23T08:03:21;4.57;;;2.05;;
72974;SDS011;61166;54.228;37.632;2022-11-23T08:05:56;6.63;;;2.67;;
72974;SDS011;61166;54.228;37.632;2022-11-23T08:08:22;6.13;;;2.78;;
72974;SDS011;61166;54.228;37.632;2022-11-23T08:10:49;4.70;;;2.03;;
72974;SDS011;61166;54.228;37.632;2022-11-23T08:13:19;10.30;;;3.05;;
72974;SDS011;61166;54.228;37.632;2022-11-23T08:15:46;7.50;;;2.30;;
72974;SDS011;61166;54.228;37.632;2022-11-23T08:18:20;4.97;;;2.63;;
72974;SDS011;61166;54.228;37.632;2022-11-23T08:20:46;4.93;;;2.42;;
72974;SDS011;61166;54.228;37.632;2022-11-23T08:23:13;6.35;;;2.33;;
72974;SDS011;61166;54.228;37.632;2022-11-23T08:25:39;5.22;;;1.98;;
72974;SDS011;61166;54.228;37.632;2022-11-23T08:28:07;5.22;;;2.65;;
72974;SDS011;61166;54.228;37.632;2022-11-23T08:30:34;6.13;;;2.40;;
72974;SDS011;61166;54.228;37.632;2022-11-23T08:33:01;3.83;;;1.80;;
72974;SDS011;61166;54.228;37.632;2022-11-23T08:35:29;3.25;;;1.23;;
72974;SDS011;61166;54.228;37.632;2022-11-23T08:37:56;6.07;;;2.50;;
72974;SDS011;61166;54.228;37.632;2022-11-23T08:40:22;5.00;;;2.92;;
72974;SDS011;61166;54.228;37.632;2022-11-23T08:42:51;4.87;;;2.20;;
72974;SDS011;61166;54.228;37.632;2022-11-23T08:45:17;3.45;;;1.48;;
72974;SDS011;61166;54.228;37.632;2022-11-23T08:47:44;3.65;;;1.60;;
72974;SDS011;61166;54.228;37.632;2022-11-23T08:50:10;4.47;;;1.30;;
72974;SDS011;61166;54.228;37.632;2022-11-23T08:52:37;4.13;;;2.15;;
72974;SDS011;61166;54.228;37.632;2022-11-23T08:55:04;4.13;;;1.60;;
72974;SDS011;61166;54.228;37.632;2022-11-23T08:57:31;5.35;;;1.63;;
72974;SDS011;61166;54.228;37.632;2022-11-23T08:59:58;4.82;;;1.90;;
72974;SDS011;61166;54.228;37.632;2022-11-23T09:02:24;4.53;;;1.48;;
72974;SDS011;61166;54.228;37.632;2022-11-23T09:04:51;4.20;;;1.58;;
72974;SDS011;61166;54.228;37.632;2022-11-23T09:07:17;4.83;;;2.23;;
72974;SDS011;61166;54.228;37.632;2022-11-23T09:09:44;4.60;;;1.92;;
72974;SDS011;61166;54.228;37.632;2022-11-23T09:12:10;4.53;;;1.10;;
72974;SDS011;61166;54.228;37.632;2022-11-23T09:14:37;6.53;;;1.50;;
72974;SDS011;61166;54.228;37.632;2022-11-23T09:17:04;3.88;;;1.75;;
72974;SDS011;61166;54.228;37.632;2022-11-23T09:19:31;3.73;;;1.80;;
72974;SDS011;61166;54.228;37.632;2022-11-23T09:21:57;3.53;;;1.52;;
72974;SDS011;61166;54.228;37.632;2022-11-23T09:24:24;5.07;;;1.95;;
72974;SDS011;61166;54.228;37.632;2022-11-23T09:26:51;4.25;;;1.13;;
72974;SDS011;61166;54.228;37.632;2022-11-23T09:29:17;3.88;;;1.55;;
72974;SDS011;61166;54.228;37.632;2022-11-23T09:31:44;3.87;;;1.23;;
72974;SDS011;61166;54.228;37.632;2022-11-23T09:34:11;3.00;;;1.10;;
72974;SDS011;61166;54.228;37.632;2022-11-23T09:36:38;4.07;;;1.63;;
72974;SDS011;61166;54.228;37.632;2022-11-23T09:39:04;2.75;;;1.10;;
72974;SDS011;61166;54.228;37.632;2022-11-23T09:44:39;2.50;;;1.10;;
72974;SDS011;61166;54.228;37.632;2022-11-23T09:47:22;3.97;;;1.58;;
72974;SDS011;61166;54.228;37.632;2022-11-23T09:50:02;4.13;;;1.38;;
72974;SDS011;61166;54.228;37.632;2022-11-23T09:52:34;3.25;;;1.30;;
72974;SDS011;61166;54.228;37.632;2022-11-23T09:55:04;4.88;;;1.83;;
72974;SDS011;61166;54.228;37.632;2022-11-23T09:57:39;3.30;;;1.50;;
72974;SDS011;61166;54.228;37.632;2022-11-23T10:02:46;3.03;;;0.90;;
72974;SDS011;61166;54.228;37.632;2022-11-23T10:05:15;5.00;;;1.30;;
72974;SDS011;61166;54.228;37.632;2022-11-23T10:14:05;3.65;;;1.67;;
72974;SDS011;61166;54.228;37.632;2022-11-23T10:19:42;3.80;;;1.20;;
72974;SDS011;61166;54.228;37.632;2022-11-23T10:22:26;2.92;;;1.35;;
72974;SDS011;61166;54.228;37.632;2022-11-23T10:25:16;5.70;;;1.95;;
72974;SDS011;61166;54.228;37.632;2022-11-23T10:27:49;3.50;;;1.60;;
72974;SDS011;61166;54.228;37.632;2022-11-23T10:30:19;3.97;;;1.55;;
72974;SDS011;61166;54.228;37.632;2022-11-23T10:32:57;5.30;;;2.55;;
72974;SDS011;61166;54.228;37.632;2022-11-23T10:35:33;5.50;;;1.80;;
72974;SDS011;61166;54.228;37.632;2022-11-23T10:38:13;6.57;;;2.35;;
72974;SDS011;61166;54.228;37.632;2022-11-23T10:43:35;7.25;;;2.60;;
72974;SDS011;61166;54.228;37.632;2022-11-23T10:48:49;6.45;;;2.65;;
72974;SDS011;61166;54.228;37.632;2022-11-23T10:51:26;11.30;;;5.03;;
72974;SDS011;61166;54.228;37.632;2022-11-23T10:53:59;7.78;;;3.85;;
72974;SDS011;61166;54.228;37.632;2022-11-23T10:56:31;5.53;;;2.05;;
72974;SDS011;61166;54.228;37.632;2022-11-23T10:58:59;7.07;;;3.00;;
72974;SDS011;61166;54.228;37.632;2022-11-23T11:01:27;5.68;;;2.38;;
72974;SDS011;61166;54.228;37.632;2022-11-23T11:03:54;7.03;;;2.38;;
72974;SDS011;61166;54.228;37.632;2022-11-23T11:06:25;5.90;;;2.42;;
72974;SDS011;61166;54.228;37.632;2022-11-23T11:08:55;4.60;;;2.10;;
72974;SDS011;61166;54.228;37.632;2022-11-23T11:11:32;5.22;;;2.05;;
72974;SDS011;61166;54.228;37.632;2022-11-23T11:14:18;6.80;;;2.05;;
72974;SDS011;61166;54.228;37.632;2022-11-23T11:16:56;7.10;;;2.90;;
72974;SDS011;61166;54.228;37.632;2022-11-23T11:19:27;5.15;;;2.00;;
72974;SDS011;61166;54.228;37.632;2022-11-23T11:22:03;7.32;;;2.20;;
72974;SDS011;61166;54.228;37.632;2022-11-23T11:24:51;4.75;;;1.90;;
72974;SDS011;61166;54.228;37.632;2022-11-23T11:27:22;5.30;;;2.50;;
72974;SDS011;61166;54.228;37.632;2022-11-23T11:29:50;5.93;;;2.20;;
72974;SDS011;61166;54.228;37.632;2022-11-23T11:32:42;5.93;;;2.05;;
72974;SDS011;61166;54.228;37.632;2022-11-23T11:38:21;4.47;;;1.50;;
72974;SDS011;61166;54.228;37.632;2022-11-23T11:40:52;3.70;;;1.90;;
72974;SDS011;61166;54.228;37.632;2022-11-23T11:45:53;4.65;;;1.80;;
72974;SDS011;61166;54.228;37.632;2022-11-23T11:48:45;4.82;;;2.20;;
72974;SDS011;61166;54.228;37.632;2022-11-23T11:51:19;5.63;;;1.98;;
72974;SDS011;61166;54.228;37.632;2022-11-23T11:57:09;5.47;;;2.20;;
72974;SDS011;61166;54.228;37.632;2022-11-23T11:59:44;4.97;;;1.73;;
72974;SDS011;61166;54.228;37.632;2022-11-23T12:02:23;6.78;;;1.83;;
72974;SDS011;61166;54.228;37.632;2022-11-23T12:07:35;3.33;;;1.45;;
72974;SDS011;61166;54.228;37.632;2022-11-23T12:12:53;4.68;;;2.03;;
72974;SDS011;61166;54.228;37.632;2022-11-23T12:15:23;5.18;;;2.00;;
72974;SDS011;61166;54.228;37.632;2022-11-23T12:26:26;6.32;;;2.30;;
72974;SDS011;61166;54.228;37.632;2022-11-23T12:31:48;6.28;;;2.00;;
72974;SDS011;61166;54.228;37.632;2022-11-23T12:34:21;7.10;;;2.92;;
72974;SDS011;61166;54.228;37.632;2022-11-23T12:36:56;9.38;;;3.10;;
72974;SDS011;61166;54.228;37.632;2022-11-23T12:39:41;5.93;;;2.30;;
72974;SDS011;61166;54.228;37.632;2022-11-23T12:48:24;7.57;;;2.78;;
72974;SDS011;61166;54.228;37.632;2022-11-23T12:53:40;5.50;;;2.17;;
72974;SDS011;61166;54.228;37.632;2022-11-23T12:59:07;5.05;;;2.00;;
72974;SDS011;61166;54.228;37.632;2022-11-23T13:01:47;7.25;;;2.15;;
72974;SDS011;61166;54.228;37.632;2022-11-23T13:07:19;4.75;;;1.73;;
72974;SDS011;61166;54.228;37.632;2022-11-23T13:10:24;4.78;;;1.90;;
72974;SDS011;61166;54.228;37.632;2022-11-23T13:23:55;5.72;;;1.58;;
72974;SDS011;61166;54.228;37.632;2022-11-23T13:26:25;5.25;;;1.70;;
72974;SDS011;61166;54.228;37.632;2022-11-23T13:28:54;5.20;;;1.88;;
72974;SDS011;61166;54.228;37.632;2022-11-23T13:33:49;5.32;;;1.58;;
72974;SDS011;61166;54.228;37.632;2022-11-23T13:42:02;6.15;;;2.05;;
72974;SDS011;61166;54.228;37.632;2022-11-23T13:44:30;7.97;;;1.97;;
72974;SDS011;61166;54.228;37.632;2022-11-23T13:47:02;6.50;;;2.17;;
72974;SDS011;61166;54.228;37.632;2022-11-23T13:49:41;6.35;;;2.35;;
72974;SDS011;61166;54.228;37.632;2022-11-23T13:54:56;5.45;;;1.85;;
72974;SDS011;61166;54.228;37.632;2022-11-23T13:57:30;4.63;;;1.90;;
72974;SDS011;61166;54.228;37.632;2022-11-23T14:00:42;5.80;;;2.20;;
72974;SDS011;61166;54.228;37.632;2022-11-23T14:03:49;5.22;;;1.92;;
72974;SDS011;61166;54.228;37.632;2022-11-23T14:08:50;8.48;;;1.90;;
72974;SDS011;61166;54.228;37.632;2022-11-23T14:11:24;4.43;;;1.73;;
72974;SDS011;61166;54.228;37.632;2022-11-23T14:13:57;8.15;;;2.28;;
72974;SDS011;61166;54.228;37.632;2022-11-23T14:19:27;6.38;;;2.25;;
72974;SDS011;61166;54.228;37.632;2022-11-23T14:27:52;5.32;;;1.67;;
72974;SDS011;61166;54.228;37.632;2022-11-23T14:30:46;3.85;;;1.40;;
72974;SDS011;61166;54.228;37.632;2022-11-23T14:36:14;5.38;;;2.10;;
72974;SDS011;61166;54.228;37.632;2022-11-23T14:39:22;6.85;;;2.30;;
72974;SDS011;61166;54.228;37.632;2022-11-23T14:41:53;7.03;;;2.65;;
72974;SDS011;61166;54.228;37.632;2022-11-23T14:44:24;5.38;;;2.20;;
72974;SDS011;61166;54.228;37.632;2022-11-23T14:46:59;11.50;;;3.05;;
72974;SDS011;61166;54.228;37.632;2022-11-23T14:49:26;8.13;;;3.00;;
72974;SDS011;61166;54.228;37.632;2022-11-23T14:51:53;7.88;;;2.88;;
72974;SDS011;61166;54.228;37.632;2022-11-23T14:54:20;10.68;;;3.17;;
72974;SDS011;61166;54.228;37.632;2022-11-23T14:56:48;7.10;;;2.78;;
72974;SDS011;61166;54.228;37.632;2022-11-23T15:01:46;6.38;;;2.75;;
72974;SDS011;61166;54.228;37.632;2022-11-23T15:04:23;7.05;;;2.80;;
72974;SDS011;61166;54.228;37.632;2022-11-23T15:06:54;5.93;;;2.40;;
72974;SDS011;61166;54.228;37.632;2022-11-23T15:14:48;7.78;;;2.83;;
72974;SDS011;61166;54.228;37.632;2022-11-23T15:17:17;7.50;;;2.70;;
72974;SDS011;61166;54.228;37.632;2022-11-23T15:22:25;6.13;;;2.30;;
72974;SDS011;61166;54.228;37.632;2022-11-23T15:24:53;6.80;;;2.72;;
72974;SDS011;61166;54.228;37.632;2022-11-23T15:27:30;7.78;;;2.72;;
72974;SDS011;61166;54.228;37.632;2022-11-23T15:29:57;6.93;;;3.05;;
72974;SDS011;61166;54.228;37.632;2022-11-23T15:34:59;6.60;;;2.83;;
72974;SDS011;61166;54.228;37.632;2022-11-23T15:37:31;6.63;;;2.80;;
72974;SDS011;61166;54.228;37.632;2022-11-23T15:40:06;5.88;;;2.78;;
72974;SDS011;61166;54.228;37.632;2022-11-23T15:42:41;9.27;;;2.72;;
72974;SDS011;61166;54.228;37.632;2022-11-23T15:50:46;8.77;;;3.25;;
72974;SDS011;61166;54.228;37.632;2022-11-23T15:53:16;6.90;;;2.97;;
72974;SDS011;61166;54.228;37.632;2022-11-23T15:55:43;7.78;;;2.92;;
72974;SDS011;61166;54.228;37.632;2022-11-23T15:58:12;7.45;;;3.28;;
72974;SDS011;61166;54.228;37.632;2022-11-23T16:00:51;8.18;;;3.50;;
72974;SDS011;61166;54.228;37.632;2022-11-23T16:08:36;8.27;;;3.30;;
72974;SDS011;61166;54.228;37.632;2022-11-23T16:11:03;10.13;;;3.55;;
72974;SDS011;61166;54.228;37.632;2022-11-23T16:13:33;7.65;;;3.45;;
72974;SDS011;61166;54.228;37.632;2022-11-23T16:16:03;11.73;;;3.28;;
72974;SDS011;61166;54.228;37.632;2022-11-23T16:18:34;7.40;;;3.42;;
72974;SDS011;61166;54.228;37.632;2022-11-23T16:21:01;7.70;;;3.08;;
72974;SDS011;61166;54.228;37.632;2022-11-23T16:23:48;9.23;;;3.70;;
72974;SDS011;61166;54.228;37.632;2022-11-23T16:26:16;5.93;;;2.83;;
72974;SDS011;61166;54.228;37.632;2022-11-23T16:28:50;8.23;;;2.90;;
72974;SDS011;61166;54.228;37.632;2022-11-23T16:31:29;8.75;;;3.03;;
72974;SDS011;61166;54.228;37.632;2022-11-23T16:34:10;7.85;;;3.20;;
72974;SDS011;61166;54.228;37.632;2022-11-23T16:36:38;7.63;;;2.67;;
72974;SDS011;61166;54.228;37.632;2022-11-23T16:39:05;8.68;;;3.00;;
72974;SDS011;61166;54.228;37.632;2022-11-23T16:41:31;7.50;;;3.10;;
72974;SDS011;61166;54.228;37.632;2022-11-23T16:43:58;7.72;;;3.10;;
72974;SDS011;61166;54.228;37.632;2022-11-23T16:46:25;8.18;;;3.42;;
72974;SDS011;61166;54.228;37.632;2022-11-23T16:48:51;9.77;;;3.10;;
72974;SDS011;61166;54.228;37.632;2022-11-23T16:51:18;7.47;;;2.75;;
72974;SDS011;61166;54.228;37.632;2022-11-23T16:53:45;11.15;;;4.47;;